Flight Track Log - Related Links

Times and Time Zones

All times are in EDT time to prevent confusion due to time zone crossing. See the SWA267 flight status page for this flight to view local times or setup timezone preferences in your user account.


Time Position Orientation Groundspeed Altitude Reporting Facility
EDT Latitude Longitude Course Direction KTS MPH feet Rate Location/Type
Fri 02:15:07 PM 39.1133 -76.6108 90° East 203 234 3,000  Level Washington Center
Fri 02:16:07 PM 39.0742 -76.5542 132° Southeast 216 249 5,300 2,250 Climbing Washington Center
Fri 02:17:07 PM 39.0958 -76.4528 75° East 226 260 7,500 2,250 Climbing Washington Center
Fri 02:18:07 PM 39.1236 -76.3381 73° East 273 314 9,800 2,150 Climbing Washington Center
Fri 02:19:07 PM 39.1494 -76.2125 75° East 321 369 11,800 2,579 Climbing Washington Center
Fri 02:20:00 PM 39.1667 -76.5893 90° East  Level FlightAware Approximate
Fri 02:20:08 PM 39.1731 -76.0600 79° East 363 418 15,000  Level Washington Center
Fri 02:21:08 PM 39.1881 -75.9183 82° East 376 433 17,000 2,168 Climbing Washington Center
Fri 02:22:07 PM 39.2550 -75.8033 53° Northeast 389 448 19,300 2,118 Climbing Washington Center
Fri 02:23:07 PM 39.3383 -75.6936 46° Northeast 404 465 21,200 1,750 Climbing Washington Center
Fri 02:24:07 PM 39.4261 -75.5836 44° Northeast 423 487 22,800 1,622 Climbing Washington Center
Fri 02:26:12 PM 39.6058 -75.3461 45° Northeast 465 535 26,200 1,548 Climbing New York Center
Fri 02:27:13 PM 39.6958 -75.2253 46° Northeast 465 535 27,600 1,210 Climbing New York Center
Fri 02:28:11 PM 39.7733 -75.1086 49° Northeast 465 535 28,600 1,160 Climbing New York Center
Fri 02:29:12 PM 39.8633 -74.9817 47° Northeast 473 544 29,900 1,289 Climbing New York Center
Fri 02:30:12 PM 39.9553 -74.8519 47° Northeast 479 551 31,200 1,240 Climbing New York Center
Fri 02:31:13 PM 40.0561 -74.7139 46° Northeast 479 551 32,400 1,220 Climbing New York Center
Fri 02:32:10 PM 40.1681 -74.6661 18° North 464 534 33,600 1,169 Climbing New York Center
Fri 02:33:11 PM 40.2967 -74.6217 15° North 469 540 34,700 885 Climbing New York Center
Fri 02:34:12 PM 40.4211 -74.5794 14° North 469 540 35,400 756 Climbing New York Center
Fri 02:35:10 PM 40.5494 -74.5403 13° North 464 534 36,200 814 Climbing New York Center
Fri 02:36:10 PM 40.6736 -74.4978 15° North 459 528 37,000 181 Climbing New York Center
Fri 02:39:02 PM 41.0436 -74.3858 13° North 442 509 36,900  Descending Boston Center
Fri 02:40:01 PM 41.1736 -74.3400 15° North 466 536 37,000 50 Climbing Boston Center
Fri 02:41:02 PM 41.2953 -74.2939 16° North 466 536 37,000  Level Boston Center
Fri 02:42:03 PM 41.4208 -74.2533 14° North 471 542 37,000 -248 Level Boston Center
Fri 02:43:03 PM 41.5508 -74.2125 13° North 471 542 36,500 -763 Descending Boston Center
Fri 02:44:01 PM 41.6806 -74.1689 14° North 471 542 35,500 -908 Descending Boston Center
Fri 02:45:02 PM 41.7833 -74.1328 15° North 471 542 34,700 -893 Descending Boston Center
Fri 02:46:02 PM 41.8911 -74.0269 36° Northeast 447 514 33,700 -1,017 Descending Boston Center
Fri 02:47:00 PM 41.9681 -73.8781 55° Northeast 447 514 32,700 -1,563 Descending Boston Center
Fri 02:48:01 PM 42.0597 -73.7208 52° Northeast 474 545 30,600 -2,508 Descending Boston Center
Fri 02:49:02 PM 42.1386 -73.5600 56° Northeast 498 573 27,600 -2,571 Descending Boston Center
Fri 02:50:00 PM 42.2108 -73.4156 56° Northeast 483 556 25,500 -1,765 Descending Boston Center
Fri 02:51:01 PM 42.2722 -73.3014 54° Northeast 457 526 24,100 -1,119 Descending Boston Center
Fri 02:52:14 PM 42.3522 -73.1508 54° Northeast 443 510 23,000 -992 Descending Boston Center
Fri 02:53:14 PM 42.4367 -72.9803 56° Northeast 448 516 21,900 -1,041 Descending Boston Center
Fri 02:54:15 PM 42.5061 -72.8456 55° Northeast 441 507 20,900 -1,240 Descending Boston Center
Fri 02:55:15 PM 42.5753 -72.7136 55° Northeast 436 502 19,400 -1,714 Descending Boston Center
Fri 02:56:14 PM 42.6400 -72.5953 53° Northeast 416 479 17,500 -1,897 Descending Boston Center
Fri 02:57:12 PM 42.7047 -72.4711 55° Northeast 405 466 15,700 -1,815 Descending Boston Center
Fri 02:58:13 PM 42.7650 -72.3525 55° Northeast 399 459 13,900 -1,736 Descending Boston Center
Fri 02:59:13 PM 42.8025 -72.2222 69° East 381 438 12,200 -1,736 Descending Boston Center
Fri 03:00:14 PM 42.8103 -72.0864 85° East 359 413 10,400 -1,240 Descending Boston Center
Fri 03:01:14 PM 42.8581 -71.9756 60° Northeast 345 397 9,700 -1,350 Descending Boston Center
Fri 03:02:14 PM 42.9200 -71.8786 49° Northeast 336 387 7,700 -1,627 Descending Boston Center
Fri 03:03:12 PM 42.9778 -71.7817 51° Northeast 336 387 6,500 -1,462 Descending Boston Center
Fri 03:04:13 PM 43.0314 -71.6875 52° Northeast 320 368 4,800 -1,180 Descending Boston Center
Fri 03:05:14 PM 43.0706 -71.5931 60° Northeast 298 343 4,100 -595 Descending Boston Center
Fri 03:06:14 PM 43.0656 -71.5164 95° East 244 281 3,600 -950 Descending Boston Center
Fri 03:07:14 PM 43.0258 -71.4886 153° Southeast 159 183 2,200 -1,140 Descending Boston Center
Fri 03:08:15 PM 42.9881 -71.4667 157° South 152 175 1,300 -814 Descending Boston Center
Fri 03:09:12 PM 42.9525 -71.4472 158° South 152 175 600 -458 Descending Boston Center
Fri 03:10:13 PM 42.9147 -71.4253 157° South 152 175 400 9,049 Descending Boston Center
Fri 03:11:14 PM 42.8792 -71.4058 158° South 152 175 19,000 9,148 Climbing Boston Center
Fri 03:12:15 PM 42.8414 -71.3839 157° South 152 175 19,000  Level Boston Center
Fri 03:14:00 PM 42.9167 -71.4333 316° Northwest  Level FlightAware Approximate
Fri 03:21:00 PM 42.9328 -71.4358 316° Northwest  Level Estimated
Fri 03:22:00 PM 42.9328 -71.4358 316° Northwest  Level Estimated
Fri 03:23:00 PM 42.9328 -71.4358 316° Northwest  Level Estimated
Fri 03:24:00 PM 42.9328 -71.4358 316° Northwest  Level Estimated
Fri 03:25:00 PM 42.9328 -71.4358 316° Northwest  Level Estimated
Fri 03:26:00 PM 42.9328 -71.4358 316° Northwest  Level Estimated

Login

Don't have an account? Register now (free) for customized features, flight alerts, and more!